Time;durP1;ratioP1;P1;durP2;ratioP2;P2;SDS_P1;SDS_P2;PMS_P1;PMS_P2;Temp;Humidity;BMP_temperature;BMP_pressure;BME280_temperature;BME280_humidity;BME280_pressure;Samples;Min_cycle;Max_cycle;Signal;HPM_P1;HPM_P2
2021/11/27 00:02:24;;;;;;;7.15;0.68;;;;;;;29.67;15.23;93014.03;5034296;28;20059;-48
2021/11/27 00:04:51;;;;;;;3.17;0.70;;;;;;;29.23;15.90;93010.53;5034403;28;20049;-50
2021/11/27 00:07:18;;;;;;;4.05;0.68;;;;;;;28.64;16.38;93020.91;5031479;28;20084;-49
2021/11/27 00:09:45;;;;;;;1.92;0.60;;;;;;;29.01;15.88;93038.16;5014676;28;20052;-50
2021/11/27 00:12:12;;;;;;;1.00;0.65;;;;;;;29.65;15.58;93019.81;5022393;28;20045;-51
2021/11/27 00:14:39;;;;;;;1.40;0.70;;;;;;;29.34;15.75;93025.13;5023024;28;20053;-51
2021/11/27 00:17:06;;;;;;;0.68;0.50;;;;;;;28.54;16.58;93038.88;5033713;28;20471;-50
2021/11/27 00:19:33;;;;;;;1.00;0.50;;;;;;;29.10;15.85;93040.19;5018130;28;20054;-49
2021/11/27 00:22:00;;;;;;;2.70;0.63;;;;;;;29.62;15.43;93031.47;5030207;28;20467;-52
2021/11/27 00:24:27;;;;;;;1.98;0.70;;;;;;;28.07;16.49;93046.78;5041327;28;20060;-50
2021/11/27 00:26:54;;;;;;;4.00;0.60;;;;;;;30.05;14.92;93030.72;5033809;28;20045;-49
2021/11/27 00:29:23;;;;;;;1.15;0.60;;;;;;;28.14;16.86;93027.81;5034179;28;20045;-50
2021/11/27 00:31:51;;;;;;;1.40;0.43;;;;;;;29.38;15.74;93041.91;5038559;28;20349;-49
2021/11/27 00:34:18;;;;;;;3.28;0.68;;;;;;;29.80;15.10;93052.41;5051193;28;20043;-49
2021/11/27 00:36:45;;;;;;;1.42;0.50;;;;;;;29.63;15.43;93018.75;5034123;28;20053;-50
2021/11/27 00:39:13;;;;;;;0.90;0.50;;;;;;;29.71;15.10;93028.84;5033096;28;20046;-51
2021/11/27 00:41:41;;;;;;;0.93;0.50;;;;;;;29.97;14.91;93040.22;5036951;28;20044;-50
2021/11/27 00:44:08;;;;;;;1.33;0.50;;;;;;;30.32;14.89;93040.84;5035844;28;20451;-49
2021/11/27 00:46:35;;;;;;;0.55;0.40;;;;;;;29.71;15.40;93023.47;5053988;28;20066;-49
2021/11/27 00:49:03;;;;;;;0.95;0.35;;;;;;;29.78;15.42;93017.06;5054081;28;20052;-49
2021/11/27 00:51:30;;;;;;;2.03;0.52;;;;;;;28.78;16.02;93062.72;5058790;28;20369;-50
2021/11/27 00:53:57;;;;;;;4.05;0.80;;;;;;;30.14;15.23;93026.53;5071562;28;20051;-49
2021/11/27 00:56:25;;;;;;;1.02;0.70;;;;;;;29.87;15.51;93014.41;5032862;28;20056;-49
2021/11/27 00:58:53;;;;;;;0.77;0.45;;;;;;;27.71;17.24;93030.97;5016633;28;20049;-50
2021/11/27 01:01:27;;;;;;;1.20;0.65;;;;;;;29.08;16.15;93040.63;5033881;28;20048;-49
2021/11/27 01:03:54;;;;;;;1.45;0.60;;;;;;;28.00;17.22;93038.19;5034583;28;20048;-49
2021/11/27 01:06:24;;;;;;;0.60;0.40;;;;;;;27.71;17.71;93040.94;5032789;28;20053;-51
2021/11/27 01:08:57;;;;;;;1.80;0.60;;;;;;;27.04;18.45;93055.69;5016618;28;20049;-50
2021/11/27 01:11:26;;;;;;;1.38;0.80;;;;;;;27.55;18.01;93042.47;5033838;28;20052;-50
2021/11/27 01:13:55;;;;;;;0.82;0.50;;;;;;;28.17;17.36;93043.06;5053251;28;20048;-51
2021/11/27 01:16:26;;;;;;;0.93;0.50;;;;;;;29.28;16.29;93048.41;5039858;28;20052;-49
2021/11/27 01:18:54;;;;;;;2.67;0.82;;;;;;;28.83;16.88;93065.59;5033936;28;20045;-50
2021/11/27 01:21:24;;;;;;;1.50;0.47;;;;;;;26.40;19.00;93084.00;5035047;28;20391;-49
2021/11/27 01:23:54;;;;;;;1.08;0.50;;;;;;;28.69;17.16;93054.56;5053467;28;20044;-50
2021/11/27 01:26:21;;;;;;;1.00;0.52;;;;;;;28.34;17.52;93035.66;5035640;28;20372;-47
2021/11/27 01:28:49;;;;;;;1.10;0.50;;;;;;;26.66;18.88;93009.16;5032504;28;20107;-48
2021/11/27 01:31:17;;;;;;;0.90;0.60;;;;;;;27.99;17.67;93050.88;5033898;28;20384;-49
2021/11/27 01:33:44;;;;;;;0.80;0.50;;;;;;;28.23;17.49;93035.97;5032066;28;20049;-48
2021/11/27 01:36:11;;;;;;;1.80;0.80;;;;;;;27.06;18.40;93033.06;5034271;28;20049;-50
2021/11/27 01:38:38;;;;;;;1.48;0.60;;;;;;;26.84;18.99;93014.06;5024340;28;20053;-50
2021/11/27 01:41:07;;;;;;;2.08;0.50;;;;;;;27.98;17.58;93025.19;5030671;28;20049;-51
2021/11/27 01:43:35;;;;;;;0.90;0.55;;;;;;;28.57;17.18;93029.19;5036073;28;20056;-49
2021/11/27 01:46:03;;;;;;;1.85;0.52;;;;;;;27.18;18.43;93003.63;5032068;28;20052;-51
2021/11/27 01:48:31;;;;;;;1.17;0.50;;;;;;;28.91;16.48;93000.88;5032786;28;20050;-50
2021/11/27 01:51:08;;;;;;;0.90;0.52;;;;;;;26.53;19.01;93016.34;5027824;28;20038;-49
2021/11/27 01:53:37;;;;;;;2.28;0.70;;;;;;;26.98;19.05;92979.59;5032910;28;20080;-50
2021/11/27 01:56:12;;;;;;;1.95;0.50;;;;;;;28.84;16.84;93001.81;5034024;28;20384;-50
2021/11/27 01:58:39;;;;;;;1.05;0.30;;;;;;;27.52;17.92;92989.66;5016186;28;20046;-49
2021/11/27 02:01:11;;;;;;;0.77;0.40;;;;;;;27.77;17.68;92980.16;5019087;28;20057;-49
2021/11/27 02:03:39;;;;;;;;;;;;;;;28.33;16.94;92985.78;5032857;28;20380;-51
2021/11/27 02:06:15;;;;;;;0.82;0.60;;;;;;;26.90;18.63;92994.38;5032400;28;19913;-49
2021/11/27 02:08:43;;;;;;;2.17;0.70;;;;;;;28.00;17.73;93001.34;5017039;28;20054;-50
2021/11/27 02:11:12;;;;;;;1.05;0.57;;;;;;;27.82;17.62;93009.16;5028798;28;20360;-49
2021/11/27 02:13:41;;;;;;;1.40;0.50;;;;;;;27.34;18.44;93010.88;5031219;28;20053;-50
2021/11/27 02:16:10;;;;;;;1.42;0.55;;;;;;;27.39;18.39;93002.31;5032364;28;20046;-48
2021/11/27 02:18:38;;;;;;;1.33;0.50;;;;;;;27.55;18.05;93009.53;5022539;28;20053;-49
2021/11/27 02:21:09;;;;;;;2.08;0.80;;;;;;;28.42;17.34;92993.97;5024760;28;20084;-49
2021/11/27 02:23:37;;;;;;;4.63;0.90;;;;;;;29.51;15.91;92992.69;5015955;28;20050;-50
2021/11/27 02:26:08;;;;;;;1.10;0.50;;;;;;;30.08;15.55;93002.88;5016523;28;20053;-51
2021/11/27 02:28:44;;;;;;;0.80;0.50;;;;;;;28.77;16.47;93008.19;4999361;28;20041;-49
2021/11/27 02:31:11;;;;;;;2.15;0.40;;;;;;;29.01;16.34;92989.00;5028932;28;20041;-50
2021/11/27 02:33:38;;;;;;;1.50;0.55;;;;;;;29.08;16.39;92988.75;5004040;28;20048;-50
2021/11/27 02:36:06;;;;;;;1.27;0.50;;;;;;;29.65;15.74;92984.06;5016422;28;20360;-49
2021/11/27 02:38:33;;;;;;;1.83;0.52;;;;;;;30.02;15.77;92966.91;5015794;28;20049;-50
2021/11/27 02:41:00;;;;;;;0.90;0.45;;;;;;;30.80;15.07;92940.78;5026010;28;20052;-49
2021/11/27 02:43:27;;;;;;;1.65;0.68;;;;;;;29.86;15.41;93007.53;5018347;28;20633;-50
2021/11/27 02:45:55;;;;;;;1.90;0.47;;;;;;;30.86;14.90;92947.06;5035946;28;20060;-49
2021/11/27 02:48:22;;;;;;;2.15;0.60;;;;;;;30.54;14.90;92946.41;5034046;28;20045;-51
2021/11/27 02:50:49;;;;;;;0.98;0.50;;;;;;;29.83;15.67;92922.22;5018380;28;20053;-49
2021/11/27 02:53:16;;;;;;;1.42;0.60;;;;;;;30.99;14.45;92901.81;5025755;28;20054;-49
2021/11/27 02:55:47;;;;;;;1.27;0.50;;;;;;;30.64;14.66;92902.09;5014944;28;20053;-50
2021/11/27 02:58:14;;;;;;;3.63;0.75;;;;;;;31.40;14.45;92905.06;5016166;28;20049;-51
2021/11/27 03:00:44;;;;;;;1.25;0.57;;;;;;;29.56;15.92;92914.03;5018398;28;20041;-49
2021/11/27 03:03:12;;;;;;;3.33;0.63;;;;;;;30.72;14.82;92913.38;5016222;28;20052;-49
2021/11/27 03:05:40;;;;;;;5.75;0.70;;;;;;;29.49;15.81;92941.22;5018372;28;20045;-49
2021/11/27 03:08:07;;;;;;;1.05;0.63;;;;;;;29.83;15.42;92916.09;5036072;28;20049;-51
2021/11/27 03:10:34;;;;;;;3.97;0.60;;;;;;;30.08;15.34;92934.78;5017034;28;20049;-49
2021/11/27 03:13:02;;;;;;;2.35;0.60;;;;;;;30.17;15.05;92918.63;5035614;28;20075;-51
2021/11/27 03:15:29;;;;;;;3.13;0.73;;;;;;;29.18;16.11;92939.22;5035448;28;20045;-51
2021/11/27 03:17:57;;;;;;;3.30;0.70;;;;;;;31.05;14.30;92924.28;5030222;28;20052;-49
2021/11/27 03:20:24;;;;;;;2.38;0.50;;;;;;;30.57;14.83;92953.63;5020203;28;20053;-50
2021/11/27 03:22:51;;;;;;;1.33;0.52;;;;;;;30.91;14.29;92927.59;5039734;28;20053;-50
2021/11/27 03:25:18;;;;;;;2.38;0.60;;;;;;;31.22;14.00;92925.47;5055017;28;20371;-50
2021/11/27 03:27:47;;;;;;;2.35;0.50;;;;;;;29.00;16.19;92944.47;5055295;28;20043;-51
2021/11/27 03:30:18;;;;;;;4.60;0.60;;;;;;;31.39;14.23;92962.97;5028153;28;20045;-51
2021/11/27 03:32:52;;;;;;;1.95;0.60;;;;;;;30.89;14.29;92932.69;5035994;28;20044;-50
2021/11/27 03:35:22;;;;;;;2.88;0.73;;;;;;;30.75;14.70;92981.84;5037180;28;20360;-49
2021/11/27 03:37:51;;;;;;;1.30;0.70;;;;;;;30.17;15.14;92974.47;5054960;28;20048;-50
2021/11/27 03:40:25;;;;;;;2.38;0.80;;;;;;;29.53;15.85;92980.28;5031646;28;20454;-50
2021/11/27 03:42:55;;;;;;;1.55;0.70;;;;;;;30.88;14.70;92979.75;5049914;28;20052;-49
2021/11/27 03:45:23;;;;;;;1.52;0.85;;;;;;;29.75;15.49;93012.56;5037235;28;20044;-52
2021/11/27 03:48:24;;;;;;;5.97;0.70;;;;;;;29.13;16.18;93004.31;5054787;28;20044;-50
2021/11/27 03:51:10;;;;;;;4.28;0.77;;;;;;;29.07;16.47;93020.28;5031135;28;20053;-51
2021/11/27 03:53:38;;;;;;;;;;;;;;;29.73;15.81;92999.56;5044454;28;20466;-50
2021/11/27 03:56:11;;;;;;;1.40;0.68;;;;;;;28.58;16.92;93028.00;5037241;28;20354;-51
2021/11/27 03:58:38;;;;;;;1.15;0.60;;;;;;;28.48;17.08;92996.84;5037056;28;20040;-49
2021/11/27 04:01:11;;;;;;;1.60;0.70;;;;;;;28.97;16.34;93009.88;5033149;28;20060;-49
2021/11/27 04:03:40;;;;;;;1.52;0.70;;;;;;;28.89;16.46;93016.66;5040847;28;20054;-50
2021/11/27 04:06:08;;;;;;;5.20;0.85;;;;;;;29.68;15.75;93031.69;5033512;28;20049;-50
2021/11/27 04:08:36;;;;;;;2.38;0.70;;;;;;;28.82;16.57;93033.75;5017157;28;20046;-50
2021/11/27 04:11:04;;;;;;;3.58;0.63;;;;;;;30.24;15.33;92983.03;5042957;28;20045;-48
2021/11/27 04:13:31;;;;;;;1.63;0.57;;;;;;;29.22;15.92;93044.03;5026384;28;20049;-51
2021/11/27 04:15:58;;;;;;;1.02;0.50;;;;;;;29.56;15.76;93049.38;5033447;28;20045;-50
2021/11/27 04:18:25;;;;;;;1.80;0.80;;;;;;;30.52;14.94;93048.56;5034470;28;20072;-50
2021/11/27 04:20:54;;;;;;;2.00;0.47;;;;;;;30.96;14.49;93046.44;5023944;28;20052;-49
2021/11/27 04:23:21;;;;;;;3.30;0.80;;;;;;;30.42;14.94;93062.44;5062746;28;20372;-50
2021/11/27 04:25:52;;;;;;;3.95;0.88;;;;;;;31.14;14.26;93055.75;5036560;28;20049;-49
2021/11/27 04:28:20;;;;;;;1.58;0.80;;;;;;;31.05;14.60;93036.88;5054302;28;20044;-49
2021/11/27 04:30:48;;;;;;;1.48;0.70;;;;;;;31.29;14.36;93052.06;5038678;28;20053;-50
2021/11/27 04:33:15;;;;;;;2.10;0.73;;;;;;;29.67;15.66;93054.41;5052803;28;20041;-50
2021/11/27 04:35:52;;;;;;;5.38;0.70;;;;;;;30.71;14.86;93040.53;5053118;28;20071;-49
2021/11/27 04:38:23;;;;;;;1.63;0.80;;;;;;;29.72;15.53;93048.47;5053293;28;20041;-49
2021/11/27 04:40:51;;;;;;;1.80;0.80;;;;;;;30.73;14.85;93065.16;5053955;28;20052;-49
2021/11/27 04:43:20;;;;;;;1.58;0.90;;;;;;;29.56;15.65;93054.03;5052631;28;20045;-50
2021/11/27 04:45:48;;;;;;;2.42;0.93;;;;;;;30.08;15.47;93062.16;5017120;28;20436;-49
2021/11/27 04:48:15;;;;;;;1.40;0.80;;;;;;;29.44;15.86;93059.03;5016772;28;20057;-49
2021/11/27 04:50:45;;;;;;;1.27;0.68;;;;;;;31.01;14.66;93047.81;5037973;28;20045;-50
2021/11/27 04:53:15;;;;;;;1.20;0.70;;;;;;;28.88;16.41;93058.19;5057588;28;20060;-49
2021/11/27 04:55:44;;;;;;;1.75;0.75;;;;;;;30.36;15.08;93075.75;5016879;28;20053;-48
2021/11/27 04:58:15;;;;;;;2.27;0.77;;;;;;;30.27;15.29;93068.38;5033068;28;20053;-49
2021/11/27 05:00:45;;;;;;;2.55;0.88;;;;;;;28.09;17.05;93067.84;5038087;28;20355;-49
2021/11/27 05:03:15;;;;;;;1.25;0.73;;;;;;;29.56;15.86;93070.19;5030340;28;20363;-50
2021/11/27 05:05:42;;;;;;;1.60;0.73;;;;;;;30.30;15.24;93056.72;5032931;28;20049;-51
2021/11/27 05:08:09;;;;;;;2.53;0.75;;;;;;;30.14;15.42;93053.50;5016697;28;20060;-49
2021/11/27 05:10:37;;;;;;;1.48;0.70;;;;;;;30.94;14.56;93066.97;5019370;28;20045;-49
2021/11/27 05:13:05;;;;;;;1.80;0.70;;;;;;;29.14;16.26;93078.47;5037191;28;20044;-49
2021/11/27 05:15:35;;;;;;;2.28;0.70;;;;;;;29.19;16.24;93059.09;5020119;28;20049;-49
2021/11/27 05:18:06;;;;;;;2.67;0.80;;;;;;;29.60;15.68;93065.41;5020336;28;20052;-49
2021/11/27 05:20:53;;;;;;;2.33;0.80;;;;;;;29.98;15.41;93087.53;5012148;28;20048;-49
2021/11/27 05:23:20;;;;;;;1.15;0.70;;;;;;;30.67;14.96;93078.44;5069222;28;20049;-49
2021/11/27 05:25:47;;;;;;;2.20;0.70;;;;;;;30.64;14.90;93076.63;5039807;28;20044;-49
2021/11/27 05:28:33;;;;;;;7.65;0.80;;;;;;;30.65;15.07;93102.41;5038011;28;20052;-49
2021/11/27 05:31:25;;;;;;;1.50;0.88;;;;;;;29.80;15.48;93095.47;5034211;28;20056;-49
2021/11/27 05:36:35;;;;;;;2.28;1.10;;;;;;;29.61;16.05;93099.22;5038886;28;20052;-49
2021/11/27 05:39:04;;;;;;;2.00;0.80;;;;;;;31.11;14.38;93126.81;5057286;28;20120;-49
2021/11/27 05:41:31;;;;;;;3.95;0.90;;;;;;;29.52;15.96;93107.25;5056829;28;20052;-49
2021/11/27 05:44:01;;;;;;;3.92;1.00;;;;;;;29.54;15.85;93102.94;5039129;28;20045;-49
2021/11/27 05:46:28;;;;;;;4.43;1.00;;;;;;;29.55;15.98;93122.53;5039400;28;20053;-50
2021/11/27 05:48:57;;;;;;;1.88;0.73;;;;;;;29.96;15.69;93146.47;5039501;28;20048;-49
2021/11/27 05:51:26;;;;;;;3.40;0.90;;;;;;;31.34;14.55;93103.97;5061351;28;20055;-49
2021/11/27 05:53:53;;;;;;;1.15;0.70;;;;;;;30.42;15.10;93106.34;5058415;28;20041;-47
2021/11/27 05:56:20;;;;;;;4.10;1.08;;;;;;;30.38;15.40;93106.47;5036912;28;20049;-49
2021/11/27 05:58:48;;;;;;;2.55;0.90;;;;;;;29.48;16.01;93138.91;5037030;28;20049;-47
2021/11/27 06:01:15;;;;;;;2.50;0.70;;;;;;;30.01;15.65;93147.84;5043336;28;20045;-48
2021/11/27 06:03:42;;;;;;;1.73;0.80;;;;;;;31.13;14.73;93154.88;5055536;28;20052;-49
2021/11/27 06:06:09;;;;;;;4.70;1.30;;;;;;;30.89;15.12;93143.84;5041445;28;20321;-52
2021/11/27 06:08:36;;;;;;;3.50;1.00;;;;;;;30.98;14.72;93189.78;5035931;28;20041;-50
2021/11/27 06:11:03;;;;;;;1.80;0.80;;;;;;;30.77;15.12;93154.75;5040794;28;20056;-50
2021/11/27 06:13:30;;;;;;;2.20;1.05;;;;;;;30.46;15.16;93195.94;5056195;28;20047;-48
2021/11/27 06:15:57;;;;;;;4.30;1.00;;;;;;;31.18;14.44;93142.75;5056530;28;20071;-48
2021/11/27 06:18:24;;;;;;;2.67;1.10;;;;;;;30.75;15.03;93170.63;5043552;28;20045;-49
2021/11/27 06:20:51;;;;;;;2.47;1.55;;;;;;;30.97;14.93;93171.34;5039372;28;20064;-49
2021/11/27 06:23:18;;;;;;;2.70;1.00;;;;;;;30.90;15.00;93166.94;5059523;28;20065;-51
2021/11/27 06:25:45;;;;;;;1.67;0.88;;;;;;;31.65;14.18;93174.78;5056402;28;20443;-49
2021/11/27 06:28:12;;;;;;;2.95;1.00;;;;;;;31.35;14.31;93156.75;5036509;28;20049;-49
2021/11/27 06:30:41;;;;;;;2.25;1.20;;;;;;;31.69;13.81;93197.00;5036830;28;20049;-50
2021/11/27 06:33:08;;;;;;;1.50;1.02;;;;;;;31.14;14.51;93148.28;5055326;28;20079;-49
2021/11/27 06:35:38;;;;;;;1.75;0.90;;;;;;;29.40;16.12;93171.41;5047223;28;20061;-39
2021/11/27 06:38:05;;;;;;;2.63;1.00;;;;;;;29.41;16.09;93145.28;5024305;23;20530;-50
2021/11/27 06:40:32;;;;;;;2.50;1.20;;;;;;;29.95;15.59;93150.38;5064862;28;20056;-54
2021/11/27 06:43:21;;;;;;;2.30;0.80;;;;;;;30.28;15.27;93172.31;5046832;28;20041;-51
2021/11/27 06:46:11;;;;;;;3.80;1.10;;;;;;;30.41;15.21;93206.50;5000556;28;20049;-55
2021/11/27 06:48:38;;;;;;;2.10;1.35;;;;;;;30.16;15.23;93208.16;5056900;28;20044;-44
2021/11/27 06:51:06;;;;;;;1.90;1.17;;;;;;;29.39;15.98;93183.34;5042455;28;20044;-44
2021/11/27 06:53:33;;;;;;;3.28;0.80;;;;;;;31.04;14.61;93230.41;5056544;28;20044;-54
2021/11/27 06:56:01;;;;;;;2.00;0.80;;;;;;;29.92;15.34;93236.66;5075852;28;20052;-51
2021/11/27 06:58:28;;;;;;;1.92;0.60;;;;;;;29.31;16.07;93206.31;5058045;28;20040;-51
2021/11/27 07:01:18;;;;;;;2.85;0.68;;;;;;;29.90;15.65;93250.56;5004756;28;20048;-63
2021/11/27 07:03:57;;;;;;;3.92;0.82;;;;;;;29.23;16.15;93225.81;5055661;28;20045;-62
2021/11/27 07:06:42;;;;;;;1.85;0.90;;;;;;;28.29;16.84;93229.66;5055667;28;20044;-51
2021/11/27 07:09:11;;;;;;;2.78;0.73;;;;;;;29.52;16.06;93220.31;5038113;28;20375;-52
2021/11/27 07:12:08;;;;;;;4.13;1.15;;;;;;;27.78;17.75;93242.09;5059926;28;20037;-70
2021/11/27 07:14:48;;;;;;;1.50;0.80;;;;;;;27.86;17.38;93219.28;5055594;28;20049;-53
2021/11/27 07:17:16;;;;;;;4.55;1.05;;;;;;;29.10;16.47;93231.19;5055288;28;20049;-58
2021/11/27 07:19:43;;;;;;;1.60;1.00;;;;;;;29.00;16.48;93240.34;5054794;28;20059;-52
2021/11/27 07:22:10;;;;;;;1.10;0.70;;;;;;;28.30;16.96;93239.22;5055299;28;20037;-59
2021/11/27 07:24:37;;;;;;;2.20;0.90;;;;;;;29.01;16.43;93231.84;5055305;28;20056;-59
2021/11/27 07:27:06;;;;;;;4.07;0.88;;;;;;;27.17;18.17;93226.69;5021343;28;20052;-49
2021/11/27 07:29:39;;;;;;;1.48;0.85;;;;;;;27.12;18.41;93232.56;5054479;28;20052;-44
2021/11/27 07:32:07;;;;;;;1.30;0.70;;;;;;;28.14;17.12;93221.22;5055147;28;20057;-45
2021/11/27 07:34:34;;;;;;;2.17;1.00;;;;;;;28.53;16.72;93230.16;5054661;28;20459;-52
2021/11/27 07:37:01;;;;;;;2.65;0.85;;;;;;;27.78;17.72;93228.69;5050622;28;20442;-48
2021/11/27 07:39:28;;;;;;;1.70;1.00;;;;;;;28.18;17.05;93235.31;5053424;28;20050;-46
2021/11/27 07:41:56;;;;;;;1.38;0.75;;;;;;;29.13;16.14;93276.06;5054833;28;20045;-66
2021/11/27 07:44:38;;;;;;;1.35;0.60;;;;;;;28.83;16.54;93245.78;5037016;28;20049;-68
2021/11/27 07:47:26;;;;;;;2.72;1.00;;;;;;;28.67;16.75;93250.50;5053594;28;20064;-57
2021/11/27 07:50:13;;;;;;;1.45;0.80;;;;;;;29.47;15.93;93262.00;5003719;28;20235;-68
2021/11/27 07:53:10;;;;;;;4.97;1.08;;;;;;;28.81;16.21;93264.28;5037249;28;20224;-68
2021/11/27 07:55:37;;;;;;;3.55;0.93;;;;;;;28.75;16.34;93276.75;5053826;28;20041;-66
2021/11/27 07:58:07;;;;;;;2.42;0.93;;;;;;;28.83;16.56;93275.38;5054492;28;20045;-66
2021/11/27 08:00:34;;;;;;;4.43;1.75;;;;;;;28.90;16.31;93252.94;5066962;28;20049;-66
2021/11/27 08:03:01;;;;;;;2.53;1.70;;;;;;;28.84;16.34;93276.88;5074521;28;20052;-66
2021/11/27 08:05:29;;;;;;;2.85;0.93;;;;;;;28.83;16.47;93269.97;5074548;28;20390;-67
2021/11/27 08:07:56;;;;;;;3.80;2.05;;;;;;;29.59;15.98;93284.69;5068756;28;20045;-67
2021/11/27 08:10:23;;;;;;;1.88;1.35;;;;;;;29.90;15.59;93279.47;5054037;28;20064;-67
2021/11/27 08:12:52;;;;;;;2.22;1.30;;;;;;;28.74;16.52;93269.88;5037595;28;20045;-67
2021/11/27 08:15:19;;;;;;;3.92;1.90;;;;;;;27.72;17.83;93286.75;5054198;28;20064;-67
2021/11/27 08:17:46;;;;;;;4.35;1.27;;;;;;;28.06;17.56;93278.97;5054214;28;20041;-66
2021/11/27 08:20:13;;;;;;;2.00;1.20;;;;;;;27.45;18.47;93268.94;5053815;28;20068;-66
2021/11/27 08:22:40;;;;;;;2.55;0.98;;;;;;;27.84;17.78;93294.84;5054263;28;20056;-46
2021/11/27 08:25:08;;;;;;;2.63;0.82;;;;;;;27.22;18.60;93277.13;5063996;28;20048;-60
2021/11/27 08:27:36;;;;;;;1.70;1.10;;;;;;;27.97;17.89;93286.88;5056495;28;20075;-66
2021/11/27 08:30:09;;;;;;;3.08;0.88;;;;;;;29.21;16.16;93273.94;5058420;28;20049;-55
2021/11/27 08:32:37;;;;;;;1.98;1.10;;;;;;;28.32;17.16;93305.97;5054255;28;20052;-55
2021/11/27 08:35:05;;;;;;;5.03;1.20;;;;;;;27.72;17.88;93318.97;5052159;28;20048;-50
2021/11/27 08:37:33;;;;;;;2.15;1.10;;;;;;;28.85;16.80;93296.47;5064001;28;20052;-48
2021/11/27 08:40:01;;;;;;;2.15;0.60;;;;;;;30.17;15.31;93316.69;5067950;28;20577;-52
2021/11/27 08:42:28;;;;;;;1.75;1.00;;;;;;;28.96;16.79;93310.38;5059636;28;20051;-45
2021/11/27 08:44:55;;;;;;;2.45;1.10;;;;;;;28.28;17.13;93305.31;5053407;28;20048;-53
2021/11/27 08:47:22;;;;;;;2.35;1.00;;;;;;;28.91;16.31;93285.97;5055797;28;20049;-57
2021/11/27 08:49:52;;;;;;;3.13;1.00;;;;;;;28.88;16.52;93297.56;5057602;28;20056;-49
2021/11/27 08:52:20;;;;;;;2.90;1.10;;;;;;;28.79;16.97;93298.91;5057784;28;20053;-59
2021/11/27 08:54:47;;;;;;;6.40;2.72;;;;;;;28.03;17.44;93312.06;5056353;28;20041;-69
2021/11/27 08:57:14;;;;;;;3.85;1.30;;;;;;;29.07;16.46;93299.31;5057130;28;20391;-60
2021/11/27 08:59:41;;;;;;;6.15;3.17;;;;;;;29.37;16.38;93295.34;5056849;28;20056;-45
2021/11/27 09:02:09;;;;;;;1.95;1.00;;;;;;;29.53;15.70;93318.72;5057200;28;20048;-53
2021/11/27 09:04:36;;;;;;;1.58;0.85;;;;;;;29.80;15.60;93294.03;5039380;28;20048;-51
2021/11/27 09:07:04;;;;;;;1.30;0.70;;;;;;;29.27;16.40;93291.78;5055976;28;20060;-62
2021/11/27 09:09:31;;;;;;;4.05;1.20;;;;;;;28.60;17.01;93288.31;5056101;28;20056;-51
2021/11/27 09:11:59;;;;;;;4.03;0.90;;;;;;;28.99;16.36;93300.72;5060896;28;20044;-56
2021/11/27 09:14:27;;;;;;;37.08;2.75;;;;;;;29.50;16.06;93300.75;5063683;28;20048;-55
2021/11/27 09:16:54;;;;;;;1.60;1.05;;;;;;;27.84;17.71;93294.09;5062276;28;20041;-55
2021/11/27 09:19:21;;;;;;;2.67;1.00;;;;;;;27.87;17.54;93299.41;5057527;28;20395;-47
2021/11/27 09:21:50;;;;;;;2.08;1.10;;;;;;;28.89;17.09;93291.78;5056028;28;20454;-48
2021/11/27 09:24:18;;;;;;;1.50;0.75;;;;;;;29.53;16.02;93287.19;5057657;28;20491;-49
2021/11/27 09:26:45;;;;;;;2.38;1.20;;;;;;;29.11;16.90;93294.56;5057644;28;20045;-46
2021/11/27 09:29:14;;;;;;;3.58;0.90;;;;;;;30.46;15.42;93301.09;5057252;28;20056;-58
2021/11/27 09:31:42;;;;;;;1.77;0.90;;;;;;;30.95;14.61;93300.50;5056786;28;20498;-48
2021/11/27 09:34:11;;;;;;;1.33;1.10;;;;;;;29.70;16.25;93312.81;5057615;28;20049;-51
2021/11/27 09:36:39;;;;;;;2.10;0.98;;;;;;;28.91;16.91;93283.28;5057429;28;20527;-56
2021/11/27 09:39:11;;;;;;;2.22;1.25;;;;;;;29.82;16.01;93302.44;5055111;28;20080;-53
2021/11/27 09:41:41;;;;;;;2.38;1.10;;;;;;;31.63;14.50;93320.34;5056163;28;20048;-53
2021/11/27 09:44:10;;;;;;;2.65;1.40;;;;;;;30.39;15.63;93314.78;5039370;28;20068;-54
2021/11/27 09:46:41;;;;;;;1.70;0.93;;;;;;;30.16;15.75;93296.31;5056347;28;20464;-54
2021/11/27 09:49:12;;;;;;;3.27;1.13;;;;;;;29.97;16.11;93304.25;5056429;28;20041;-51
2021/11/27 09:51:40;;;;;;;3.60;1.40;;;;;;;29.61;16.29;93304.59;5041770;28;20298;-52
2021/11/27 09:54:09;;;;;;;1.85;1.17;;;;;;;29.81;16.01;93307.06;5056956;28;20045;-50
2021/11/27 09:56:36;;;;;;;3.30;1.17;;;;;;;31.06;14.64;93303.56;5041458;28;20435;-52
2021/11/27 09:59:03;;;;;;;3.45;1.20;;;;;;;31.45;14.32;93290.56;5056867;28;20367;-47
2021/11/27 10:01:35;;;;;;;4.28;1.00;;;;;;;30.99;14.58;93282.25;5056944;28;20060;-44
2021/11/27 10:04:08;;;;;;;2.10;0.90;;;;;;;31.65;13.92;93287.47;5056942;28;20052;-54
2021/11/27 10:06:38;;;;;;;2.70;0.90;;;;;;;31.26;14.15;93271.63;5059803;28;20052;-54
2021/11/27 10:09:13;;;;;;;2.08;0.93;;;;;;;30.52;15.15;93272.38;5061598;28;20056;-55
2021/11/27 10:11:41;;;;;;;2.22;0.90;;;;;;;30.50;15.14;93274.00;5055502;28;20400;-62
2021/11/27 10:14:09;;;;;;;1.27;0.80;;;;;;;31.63;14.05;93263.63;5058681;28;20064;-48
2021/11/27 10:16:56;;;;;;;3.38;1.73;;;;;;;31.52;13.88;93282.19;5056687;28;20048;-49
2021/11/27 10:19:24;;;;;;;3.65;0.93;;;;;;;32.37;13.28;93286.88;5056565;28;20045;-49
2021/11/27 10:22:01;;;;;;;1.73;0.75;;;;;;;32.94;12.54;93256.59;5056289;28;20055;-48
2021/11/27 10:24:31;;;;;;;3.22;1.10;;;;;;;32.37;13.03;93265.25;5075818;28;20045;-49
2021/11/27 10:27:02;;;;;;;1.90;0.80;;;;;;;32.91;12.73;93254.81;5076215;28;20059;-48
2021/11/27 10:29:34;;;;;;;;;;;;;;;32.77;12.87;93264.28;5056746;28;20052;-49
2021/11/27 10:32:10;;;;;;;2.47;0.88;;;;;;;31.45;14.37;93258.91;5056010;28;19917;-47
2021/11/27 10:34:39;;;;;;;2.63;1.02;;;;;;;31.73;14.07;93246.25;5056381;28;20044;-49
2021/11/27 10:37:25;;;;;;;2.33;1.10;;;;;;;30.65;15.07;93259.56;5038447;28;20455;-52
2021/11/27 10:40:17;;;;;;;3.25;1.20;;;;;;;31.47;13.71;93239.56;5054981;28;20061;-48
2021/11/27 10:42:46;;;;;;;3.72;1.77;;;;;;;31.45;13.84;93271.66;5046695;28;20045;-48
2021/11/27 10:45:19;;;;;;;2.30;1.17;;;;;;;32.34;13.62;93238.34;5056114;28;20359;-50
2021/11/27 10:47:48;;;;;;;2.20;1.10;;;;;;;32.18;13.19;93223.16;5055873;28;20056;-48
2021/11/27 10:50:19;;;;;;;2.67;0.70;;;;;;;32.68;12.79;93229.13;5055762;28;20359;-48
2021/11/27 10:52:52;;;;;;;1.65;0.85;;;;;;;31.27;14.04;93216.44;5055668;28;20060;-48
2021/11/27 10:55:20;;;;;;;2.20;0.93;;;;;;;32.43;13.06;93224.81;5055934;28;20055;-48
2021/11/27 10:57:48;;;;;;;1.95;0.85;;;;;;;31.64;14.18;93219.19;5055598;28;20044;-48
2021/11/27 11:00:32;;;;;;;1.55;0.80;;;;;;;32.14;13.21;93209.06;5055573;28;20049;-49
2021/11/27 11:03:01;;;;;;;2.72;0.80;;;;;;;31.47;13.87;93212.56;5055434;28;20448;-48
2021/11/27 11:05:35;;;;;;;1.73;0.70;;;;;;;32.20;13.03;93210.69;5055665;28;20051;-49
2021/11/27 11:08:05;;;;;;;4.30;0.98;;;;;;;31.69;14.09;93207.78;5054977;28;20070;-49
2021/11/27 11:10:34;;;;;;;2.67;0.80;;;;;;;33.27;12.53;93192.41;5054556;28;20048;-50
2021/11/27 11:13:09;;;;;;;4.00;0.88;;;;;;;32.13;13.04;93191.34;5055423;28;20467;-49
2021/11/27 11:15:43;;;;;;;2.63;0.75;;;;;;;33.13;12.33;93181.50;5055508;28;20052;-49
2021/11/27 11:18:10;;;;;;;1.77;0.80;;;;;;;32.93;12.77;93196.31;5055371;28;20059;-48
2021/11/27 11:20:44;;;;;;;1.45;0.70;;;;;;;30.97;14.28;93179.41;5055138;28;20044;-49
2021/11/27 11:23:19;;;;;;;1.52;0.80;;;;;;;32.36;12.84;93176.47;5055069;28;20526;-48
2021/11/27 11:26:17;;;;;;;2.35;1.00;;;;;;;32.11;13.26;93169.41;5055117;28;20053;-49
2021/11/27 11:28:55;;;;;;;1.70;0.80;;;;;;;32.96;12.41;93179.16;5049249;28;20435;-50
2021/11/27 11:31:27;;;;;;;2.50;0.68;;;;;;;31.78;13.56;93177.38;5053688;28;20052;-48
2021/11/27 11:33:57;;;;;;;2.90;0.80;;;;;;;31.38;13.89;93182.84;5054043;28;20052;-50
2021/11/27 11:36:25;;;;;;;2.03;1.10;;;;;;;32.47;13.39;93176.72;5054219;28;20054;-51
2021/11/27 11:38:57;;;;;;;3.33;1.40;;;;;;;31.35;14.28;93189.16;5054504;28;20072;-52
2021/11/27 11:41:25;;;;;;;;;;;;;;;31.04;14.28;93187.25;5054430;28;20050;-48
2021/11/27 11:43:53;;;;;;;4.35;0.88;;;;;;;30.13;15.09;93181.34;5053707;28;19921;-66
2021/11/27 11:46:21;;;;;;;1.55;0.80;;;;;;;31.64;13.96;93200.28;5053926;28;20055;-52
2021/11/27 11:48:51;;;;;;;2.40;1.38;;;;;;;31.95;13.42;93202.88;5054029;28;20052;-53
2021/11/27 11:51:42;;;;;;;4.32;1.20;;;;;;;31.39;13.94;93177.00;5054564;28;20344;-49